Time;durP1;ratioP1;P1;durP2;ratioP2;P2;SDS_P1;SDS_P2;PMS_P1;PMS_P2;Temp;Humidity;BMP_temperature;BMP_pressure;BME280_temperature;BME280_humidity;BME280_pressure;Samples;Min_cycle;Max_cycle;Signal;HPM_P1;HPM_P2
2023/12/13 00:00:09;;;;;;;3.33;1.38;;;;;;;;;;690427;28;1315;-70
2023/12/13 00:00:33;;;;;;;3.53;1.50;;;;;;;;;;690345;28;1240;-70
2023/12/13 00:00:53;;;;;;;4.30;1.60;;;;;;;;;;688983;28;4517;-70
2023/12/13 00:01:13;;;;;;;4.17;1.50;;;;;;;;;;689691;28;1310;-70
2023/12/13 00:01:34;;;;;;;3.13;1.20;;;;;;;;;;689684;28;1283;-70
2023/12/13 00:01:54;;;;;;;3.10;1.23;;;;;;;;;;689935;28;1769;-70
2023/12/13 00:02:14;;;;;;;3.07;1.30;;;;;;;;;;690100;28;1216;-70
2023/12/13 00:02:34;;;;;;;3.30;1.20;;;;;;;;;;689308;28;1419;-70
2023/12/13 00:02:55;;;;;;;2.90;1.17;;;;;;;;;;688869;28;2536;-70
2023/12/13 00:03:15;;;;;;;3.53;1.20;;;;;;;;;;689682;28;1366;-71
2023/12/13 00:03:35;;;;;;;3.58;1.27;;;;;;;;;;689795;28;1326;-72
2023/12/13 00:03:55;;;;;;;3.30;1.00;;;;;;;;;;688045;28;4323;-71
2023/12/13 00:04:16;;;;;;;2.23;1.10;;;;;;;;;;689359;28;1385;-70
2023/12/13 00:04:37;;;;;;;3.33;1.10;;;;;;;;;;689855;28;1385;-70
2023/12/13 00:04:58;;;;;;;4.45;1.15;;;;;;;;;;689412;28;1720;-70
2023/12/13 00:05:18;;;;;;;4.18;1.13;;;;;;;;;;689880;28;1291;-70
2023/12/13 00:05:39;;;;;;;3.72;1.10;;;;;;;;;;689228;28;1244;-70
2023/12/13 00:06:00;;;;;;;3.60;1.00;;;;;;;;;;689210;28;2072;-70
2023/12/13 00:06:20;;;;;;;4.07;1.10;;;;;;;;;;688964;28;1398;-71
2023/12/13 00:06:41;;;;;;;3.28;1.17;;;;;;;;;;688796;28;1403;-70
2023/12/13 00:07:03;;;;;;;4.60;1.10;;;;;;;;;;688782;28;4964;-72
2023/12/13 00:07:24;;;;;;;3.67;1.17;;;;;;;;;;690021;28;1430;-72
2023/12/13 00:07:45;;;;;;;3.95;1.05;;;;;;;;;;691223;28;1311;-71
2023/12/13 00:08:07;;;;;;;3.28;1.00;;;;;;;;;;688924;28;1438;-70
2023/12/13 00:08:28;;;;;;;2.83;0.98;;;;;;;;;;688720;28;1561;-70
2023/12/13 00:08:49;;;;;;;2.83;1.15;;;;;;;;;;688836;28;1958;-70
2023/12/13 00:09:09;;;;;;;3.63;1.23;;;;;;;;;;690089;28;1323;-70
2023/12/13 00:09:30;;;;;;;3.30;1.10;;;;;;;;;;689181;28;1495;-70
2023/12/13 00:09:50;;;;;;;3.72;1.10;;;;;;;;;;688592;28;4271;-70
2023/12/13 00:10:11;;;;;;;3.37;1.10;;;;;;;;;;689644;28;1394;-70
2023/12/13 00:10:31;;;;;;;3.50;1.20;;;;;;;;;;689810;28;1229;-70
2023/12/13 00:10:57;;;;;;;3.90;1.00;;;;;;;;;;686562;28;2206;-70
2023/12/13 00:11:18;;;;;;;2.70;0.90;;;;;;;;;;686042;28;1307;-72
2023/12/13 00:11:38;;;;;;;3.40;1.00;;;;;;;;;;686677;28;1316;-71
2023/12/13 00:11:58;;;;;;;3.50;1.03;;;;;;;;;;684221;28;2104;-69
2023/12/13 00:12:19;;;;;;;3.15;1.05;;;;;;;;;;686917;28;1319;-70
2023/12/13 00:12:39;;;;;;;3.40;1.20;;;;;;;;;;687029;28;1276;-69
2023/12/13 00:12:59;;;;;;;3.67;1.23;;;;;;;;;;686282;28;4645;-71
2023/12/13 00:13:19;;;;;;;4.53;1.20;;;;;;;;;;686697;28;1308;-71
2023/12/13 00:13:40;;;;;;;5.57;1.60;;;;;;;;;;685301;28;1221;-71
2023/12/13 00:14:00;;;;;;;4.23;1.23;;;;;;;;;;689307;28;1084;-70
2023/12/13 00:14:22;;;;;;;3.53;1.17;;;;;;;;;;690021;28;1247;-70
2023/12/13 00:14:42;;;;;;;2.50;1.00;;;;;;;;;;689820;28;1298;-70
2023/12/13 00:15:03;;;;;;;3.33;1.00;;;;;;;;;;689173;28;1977;-70
2023/12/13 00:15:23;;;;;;;4.20;1.10;;;;;;;;;;690176;28;1413;-70
2023/12/13 00:15:43;;;;;;;3.73;1.20;;;;;;;;;;688394;28;4325;-70
2023/12/13 00:16:04;;;;;;;2.90;1.10;;;;;;;;;;688481;28;2334;-71
2023/12/13 00:16:24;;;;;;;2.92;1.10;;;;;;;;;;689706;28;1528;-70
2023/12/13 00:16:45;;;;;;;3.83;1.20;;;;;;;;;;686909;28;1362;-70
2023/12/13 00:17:08;;;;;;;3.58;1.10;;;;;;;;;;683688;28;2489;-71
2023/12/13 00:17:28;;;;;;;4.10;0.98;;;;;;;;;;680364;29;1574;-70
2023/12/13 00:17:49;;;;;;;3.30;0.90;;;;;;;;;;680163;28;1569;-71
2023/12/13 00:18:09;;;;;;;2.97;0.90;;;;;;;;;;684164;28;1364;-71
2023/12/13 00:18:30;;;;;;;3.70;1.30;;;;;;;;;;680596;28;1317;-71
2023/12/13 00:18:50;;;;;;;2.70;1.17;;;;;;;;;;681976;28;4395;-71
2023/12/13 00:19:10;;;;;;;2.50;0.90;;;;;;;;;;685798;28;1374;-71
2023/12/13 00:19:30;;;;;;;3.43;1.20;;;;;;;;;;688563;28;1411;-71
2023/12/13 00:19:51;;;;;;;4.10;1.20;;;;;;;;;;687310;28;1716;-71
2023/12/13 00:20:11;;;;;;;2.50;1.00;;;;;;;;;;688357;28;3532;-71
2023/12/13 00:20:31;;;;;;;3.30;1.10;;;;;;;;;;689808;28;1377;-71
2023/12/13 00:20:52;;;;;;;3.03;1.10;;;;;;;;;;689012;28;1721;-70
2023/12/13 00:21:13;;;;;;;2.97;1.00;;;;;;;;;;690002;28;1362;-70
2023/12/13 00:21:33;;;;;;;2.60;1.00;;;;;;;;;;689517;28;1351;-71
2023/12/13 00:21:53;;;;;;;2.67;1.17;;;;;;;;;;686753;28;4462;-70
2023/12/13 00:22:14;;;;;;;2.70;1.10;;;;;;;;;;689071;28;1405;-71
2023/12/13 00:22:34;;;;;;;2.80;0.90;;;;;;;;;;689748;28;1323;-70
2023/12/13 00:22:55;;;;;;;2.33;0.97;;;;;;;;;;689593;28;2409;-71
2023/12/13 00:23:15;;;;;;;3.80;1.10;;;;;;;;;;688030;28;1268;-70
2023/12/13 00:23:35;;;;;;;4.10;1.30;;;;;;;;;;690205;28;1143;-70
2023/12/13 00:23:56;;;;;;;4.40;1.20;;;;;;;;;;689710;28;1869;-70
2023/12/13 00:24:16;;;;;;;3.30;1.00;;;;;;;;;;688891;28;1386;-70
2023/12/13 00:24:36;;;;;;;2.70;0.80;;;;;;;;;;689630;28;1370;-71
2023/12/13 00:24:56;;;;;;;2.60;0.90;;;;;;;;;;688479;28;4242;-70
2023/12/13 00:25:17;;;;;;;4.35;1.10;;;;;;;;;;689554;28;1339;-70
2023/12/13 00:25:37;;;;;;;3.33;1.10;;;;;;;;;;690067;28;1323;-71
2023/12/13 00:25:57;;;;;;;2.50;0.90;;;;;;;;;;689197;28;2261;-71
2023/12/13 00:26:18;;;;;;;2.25;0.90;;;;;;;;;;691983;28;1338;-70
2023/12/13 00:26:39;;;;;;;2.35;0.80;;;;;;;;;;690209;28;1323;-70
2023/12/13 00:27:00;;;;;;;3.05;0.93;;;;;;;;;;689323;28;2344;-70
2023/12/13 00:27:20;;;;;;;2.83;0.90;;;;;;;;;;689375;28;1334;-70
2023/12/13 00:27:40;;;;;;;2.95;1.00;;;;;;;;;;690111;28;1311;-70
2023/12/13 00:28:00;;;;;;;4.30;1.00;;;;;;;;;;688913;28;4250;-72
2023/12/13 00:28:21;;;;;;;3.20;0.97;;;;;;;;;;689127;28;1660;-70
2023/12/13 00:28:41;;;;;;;2.70;0.90;;;;;;;;;;689912;28;1303;-70
2023/12/13 00:29:02;;;;;;;3.10;1.00;;;;;;;;;;686618;28;1412;-71
2023/12/13 00:29:23;;;;;;;1.55;0.95;;;;;;;;;;687598;28;1354;-70
2023/12/13 00:29:43;;;;;;;2.30;0.90;;;;;;;;;;687301;28;1417;-71
2023/12/13 00:30:04;;;;;;;2.87;0.90;;;;;;;;;;686902;28;1278;-71
2023/12/13 00:30:24;;;;;;;2.55;0.90;;;;;;;;;;685076;28;1418;-71
2023/12/13 00:30:45;;;;;;;2.63;0.90;;;;;;;;;;686452;28;4447;-71
2023/12/13 00:31:05;;;;;;;2.70;0.98;;;;;;;;;;686428;28;2304;-71
2023/12/13 00:31:26;;;;;;;2.08;1.13;;;;;;;;;;687036;28;1454;-71
2023/12/13 00:31:46;;;;;;;2.07;1.30;;;;;;;;;;686384;28;1419;-71
2023/12/13 00:32:06;;;;;;;1.97;0.90;;;;;;;;;;686277;28;1700;-69
2023/12/13 00:32:27;;;;;;;2.55;0.90;;;;;;;;;;684171;28;1336;-70
2023/12/13 00:32:47;;;;;;;3.50;1.00;;;;;;;;;;685906;28;1774;-70
2023/12/13 00:33:07;;;;;;;3.17;0.90;;;;;;;;;;686873;28;1308;-70
2023/12/13 00:33:28;;;;;;;2.30;0.83;;;;;;;;;;689948;28;1691;-70
2023/12/13 00:33:48;;;;;;;1.97;0.93;;;;;;;;;;688287;28;4300;-70
2023/12/13 00:34:08;;;;;;;2.13;0.88;;;;;;;;;;690006;28;1560;-70
2023/12/13 00:34:29;;;;;;;2.10;0.80;;;;;;;;;;689450;28;1428;-70
2023/12/13 00:34:49;;;;;;;3.58;1.00;;;;;;;;;;686000;28;1906;-70
2023/12/13 00:35:10;;;;;;;3.30;1.00;;;;;;;;;;687288;28;1469;-70
2023/12/13 00:35:30;;;;;;;2.67;1.00;;;;;;;;;;687343;28;1359;-70
2023/12/13 00:35:50;;;;;;;2.20;0.90;;;;;;;;;;685840;28;1267;-70
2023/12/13 00:36:10;;;;;;;2.00;0.80;;;;;;;;;;685825;28;1382;-70
2023/12/13 00:36:31;;;;;;;2.03;0.80;;;;;;;;;;687465;28;1295;-70
2023/12/13 00:36:51;;;;;;;2.70;1.27;;;;;;;;;;688058;28;4310;-70
2023/12/13 00:37:11;;;;;;;2.50;1.10;;;;;;;;;;688989;28;1314;-70
2023/12/13 00:37:31;;;;;;;2.50;0.90;;;;;;;;;;689833;28;1366;-71
2023/12/13 00:37:52;;;;;;;2.30;0.87;;;;;;;;;;688838;28;1231;-70
2023/12/13 00:38:12;;;;;;;1.80;0.80;;;;;;;;;;689721;28;1359;-71
2023/12/13 00:38:32;;;;;;;2.53;0.90;;;;;;;;;;688325;28;1375;-71
2023/12/13 00:38:53;;;;;;;3.25;0.95;;;;;;;;;;688042;28;6089;-71
2023/12/13 00:39:13;;;;;;;4.20;1.00;;;;;;;;;;687590;28;1425;-70
2023/12/13 00:39:33;;;;;;;3.07;1.10;;;;;;;;;;689870;28;1316;-71
2023/12/13 00:39:53;;;;;;;2.10;1.10;;;;;;;;;;687257;28;4243;-70
2023/12/13 00:40:14;;;;;;;3.50;1.10;;;;;;;;;;689835;28;1398;-71
2023/12/13 00:40:34;;;;;;;3.30;1.15;;;;;;;;;;689604;28;1458;-70
2023/12/13 00:40:55;;;;;;;2.43;1.10;;;;;;;;;;687563;28;1706;-71
2023/12/13 00:41:16;;;;;;;2.40;1.10;;;;;;;;;;686935;28;1343;-70
2023/12/13 00:41:36;;;;;;;3.20;1.20;;;;;;;;;;684494;28;1281;-70
2023/12/13 00:41:56;;;;;;;4.37;1.40;;;;;;;;;;683568;28;1788;-71
2023/12/13 00:42:17;;;;;;;3.87;1.50;;;;;;;;;;684658;28;881;-70
2023/12/13 00:42:37;;;;;;;5.03;1.55;;;;;;;;;;681899;28;1451;-70
2023/12/13 00:42:57;;;;;;;2.47;1.00;;;;;;;;;;682658;28;4560;-70
2023/12/13 00:43:17;;;;;;;2.83;1.00;;;;;;;;;;684107;28;1371;-71
2023/12/13 00:43:38;;;;;;;2.92;1.20;;;;;;;;;;683371;28;1414;-70
2023/12/13 00:43:58;;;;;;;3.27;1.10;;;;;;;;;;685795;28;2367;-70
2023/12/13 00:44:18;;;;;;;3.97;1.10;;;;;;;;;;687053;28;1336;-70
2023/12/13 00:44:39;;;;;;;3.28;1.20;;;;;;;;;;690142;28;1342;-70
2023/12/13 00:44:59;;;;;;;2.97;1.20;;;;;;;;;;689117;28;1153;-70
2023/12/13 00:45:19;;;;;;;3.33;1.20;;;;;;;;;;689821;28;1414;-70
2023/12/13 00:45:40;;;;;;;2.67;1.10;;;;;;;;;;689404;28;1342;-71
2023/12/13 00:46:01;;;;;;;2.95;1.02;;;;;;;;;;688536;28;4219;-70
2023/12/13 00:46:22;;;;;;;3.07;1.00;;;;;;;;;;689820;28;904;-70
2023/12/13 00:46:42;;;;;;;2.83;0.90;;;;;;;;;;689323;28;1418;-70
2023/12/13 00:47:03;;;;;;;4.37;1.20;;;;;;;;;;688257;28;1311;-70
2023/12/13 00:47:23;;;;;;;2.85;1.08;;;;;;;;;;687981;28;1425;-70
2023/12/13 00:47:43;;;;;;;2.87;1.00;;;;;;;;;;689691;28;1350;-71
2023/12/13 00:48:04;;;;;;;4.60;1.20;;;;;;;;;;688755;28;2336;-70
2023/12/13 00:48:24;;;;;;;3.17;1.00;;;;;;;;;;687660;28;1426;-70
2023/12/13 00:48:44;;;;;;;2.90;1.00;;;;;;;;;;689528;28;4442;-71
2023/12/13 00:49:04;;;;;;;3.90;1.10;;;;;;;;;;688103;28;1859;-70
2023/12/13 00:49:25;;;;;;;4.93;1.20;;;;;;;;;;689072;28;1525;-70
2023/12/13 00:49:45;;;;;;;2.63;1.13;;;;;;;;;;689583;28;1398;-71
2023/12/13 00:50:06;;;;;;;2.47;1.10;;;;;;;;;;689154;28;1876;-70
2023/12/13 00:50:26;;;;;;;2.88;1.00;;;;;;;;;;689579;28;1430;-71
2023/12/13 00:50:46;;;;;;;4.57;1.10;;;;;;;;;;689040;28;1374;-71
2023/12/13 00:51:14;;;;;;;3.10;1.13;;;;;;;;;;688112;28;1857;-69
2023/12/13 00:51:34;;;;;;;2.58;1.20;;;;;;;;;;689510;28;1311;-70
2023/12/13 00:51:54;;;;;;;3.55;1.10;;;;;;;;;;688572;28;4588;-70
2023/12/13 00:52:14;;;;;;;4.43;1.23;;;;;;;;;;689597;28;1430;-70
2023/12/13 00:52:35;;;;;;;2.67;1.13;;;;;;;;;;688230;28;852;-70
2023/12/13 00:52:55;;;;;;;4.35;1.17;;;;;;;;;;685944;28;1722;-71
2023/12/13 00:53:15;;;;;;;3.10;1.10;;;;;;;;;;686830;28;1386;-70
2023/12/13 00:53:35;;;;;;;2.40;1.17;;;;;;;;;;686458;28;1312;-71
2023/12/13 00:53:56;;;;;;;2.50;1.47;;;;;;;;;;689143;28;1158;-71
2023/12/13 00:54:16;;;;;;;3.03;1.40;;;;;;;;;;688867;28;1554;-70
2023/12/13 00:54:36;;;;;;;3.83;1.40;;;;;;;;;;688615;28;1370;-70
2023/12/13 00:55:00;;;;;;;3.57;1.20;;;;;;;;;;687501;28;4402;-70
2023/12/13 00:55:21;;;;;;;4.38;1.00;;;;;;;;;;688402;28;1435;-71
2023/12/13 00:55:41;;;;;;;5.05;1.13;;;;;;;;;;687654;28;1354;-72
2023/12/13 00:56:02;;;;;;;3.60;1.10;;;;;;;;;;686811;28;1479;-70
2023/12/13 00:56:22;;;;;;;3.63;1.05;;;;;;;;;;689413;28;1474;-71
2023/12/13 00:56:42;;;;;;;2.57;1.00;;;;;;;;;;688318;28;1352;-70
2023/12/13 00:57:03;;;;;;;2.78;1.00;;;;;;;;;;685840;28;1778;-69
2023/12/13 00:57:23;;;;;;;4.10;1.30;;;;;;;;;;686508;28;1276;-70
2023/12/13 00:57:43;;;;;;;4.03;1.35;;;;;;;;;;684989;28;5335;-70
2023/12/13 00:58:04;;;;;;;3.63;1.27;;;;;;;;;;685018;28;2379;-70
2023/12/13 00:58:24;;;;;;;3.17;1.23;;;;;;;;;;685621;28;1423;-70
2023/12/13 00:58:47;;;;;;;3.13;1.33;;;;;;;;;;689458;28;1319;-70
2023/12/13 00:59:07;;;;;;;4.18;1.20;;;;;;;;;;688979;28;1715;-71
2023/12/13 00:59:28;;;;;;;3.90;1.20;;;;;;;;;;689048;28;1628;-70
2023/12/13 00:59:48;;;;;;;3.80;1.30;;;;;;;;;;688278;28;2365;-70
2023/12/13 01:00:09;;;;;;;3.50;1.20;;;;;;;;;;689968;28;1536;-70
2023/12/13 01:00:30;;;;;;;2.90;1.20;;;;;;;;;;689013;28;1303;-70
2023/12/13 01:00:50;;;;;;;4.43;1.17;;;;;;;;;;685519;28;5204;-69
2023/12/13 01:01:11;;;;;;;3.67;1.40;;;;;;;;;;689221;28;1328;-71
2023/12/13 01:01:31;;;;;;;2.90;1.33;;;;;;;;;;689768;28;1410;-69
2023/12/13 01:01:51;;;;;;;3.37;1.20;;;;;;;;;;688664;28;1830;-70
2023/12/13 01:02:12;;;;;;;4.03;1.30;;;;;;;;;;689343;28;1149;-70
2023/12/13 01:02:32;;;;;;;2.92;1.30;;;;;;;;;;689829;28;1407;-70
2023/12/13 01:02:52;;;;;;;3.67;1.40;;;;;;;;;;688843;28;2391;-69
2023/12/13 01:03:13;;;;;;;3.55;1.33;;;;;;;;;;689624;28;1410;-71
2023/12/13 01:03:34;;;;;;;4.20;1.40;;;;;;;;;;689844;28;1425;-70
2023/12/13 01:03:54;;;;;;;4.57;1.60;;;;;;;;;;685697;28;5176;-70
2023/12/13 01:04:14;;;;;;;4.27;1.60;;;;;;;;;;686844;28;1351;-71
2023/12/13 01:04:36;;;;;;;4.27;1.60;;;;;;;;;;687467;28;1371;-71
2023/12/13 01:04:57;;;;;;;3.63;1.60;;;;;;;;;;685854;28;1781;-71
2023/12/13 01:05:17;;;;;;;5.53;1.80;;;;;;;;;;687020;28;1316;-70
2023/12/13 01:05:37;;;;;;;3.40;1.48;;;;;;;;;;687589;28;1312;-70
2023/12/13 01:05:57;;;;;;;4.07;1.43;;;;;;;;;;688502;28;1686;-70
2023/12/13 01:06:18;;;;;;;4.37;1.50;;;;;;;;;;689322;28;1102;-70
2023/12/13 01:06:38;;;;;;;4.20;1.50;;;;;;;;;;689933;28;1409;-69
2023/12/13 01:06:58;;;;;;;4.67;1.90;;;;;;;;;;687531;28;4587;-70
2023/12/13 01:07:19;;;;;;;4.63;1.73;;;;;;;;;;689279;28;1311;-70
2023/12/13 01:07:39;;;;;;;4.93;1.63;;;;;;;;;;689416;28;924;-70
2023/12/13 01:07:59;;;;;;;4.60;1.60;;;;;;;;;;688620;28;1036;-70
2023/12/13 01:08:19;;;;;;;5.80;1.90;;;;;;;;;;688002;28;1339;-71
2023/12/13 01:08:40;;;;;;;7.03;2.08;;;;;;;;;;689130;28;1447;-71
2023/12/13 01:09:00;;;;;;;7.27;2.23;;;;;;;;;;685927;28;1681;-70
2023/12/13 01:09:20;;;;;;;8.33;2.40;;;;;;;;;;686772;28;1398;-70
2023/12/13 01:09:40;;;;;;;8.30;2.30;;;;;;;;;;687268;28;1470;-70
2023/12/13 01:10:01;;;;;;;6.10;2.07;;;;;;;;;;685574;28;4385;-70
2023/12/13 01:10:21;;;;;;;5.43;2.10;;;;;;;;;;686723;28;1140;-70
2023/12/13 01:10:41;;;;;;;5.93;2.10;;;;;;;;;;686946;28;1311;-71
2023/12/13 01:11:05;;;;;;;5.78;1.90;;;;;;;;;;689324;28;1461;-70
2023/12/13 01:11:25;;;;;;;6.28;2.05;;;;;;;;;;689530;28;1319;-70
2023/12/13 01:11:46;;;;;;;4.67;2.00;;;;;;;;;;689230;28;1449;-70
2023/12/13 01:12:06;;;;;;;5.03;1.97;;;;;;;;;;686424;28;2478;-70
2023/12/13 01:12:26;;;;;;;7.68;2.33;;;;;;;;;;686479;28;1348;-71
2023/12/13 01:12:47;;;;;;;6.03;2.27;;;;;;;;;;688621;28;4329;-71
2023/12/13 01:13:07;;;;;;;6.28;2.38;;;;;;;;;;689956;28;1340;-70
2023/12/13 01:13:27;;;;;;;6.30;2.30;;;;;;;;;;688367;28;1392;-71
2023/12/13 01:13:48;;;;;;;6.83;1.90;;;;;;;;;;687702;28;1585;-70
2023/12/13 01:14:08;;;;;;;5.53;1.98;;;;;;;;;;689507;28;2195;-70
2023/12/13 01:14:29;;;;;;;6.63;2.00;;;;;;;;;;690058;28;1596;-70
2023/12/13 01:14:49;;;;;;;5.47;1.80;;;;;;;;;;688921;28;1413;-70
2023/12/13 01:15:10;;;;;;;5.50;1.87;;;;;;;;;;688784;28;1457;-71
2023/12/13 01:15:30;;;;;;;4.53;1.80;;;;;;;;;;690054;28;956;-71
2023/12/13 01:15:50;;;;;;;4.50;1.73;;;;;;;;;;688417;28;4382;-71
2023/12/13 01:16:11;;;;;;;4.10;2.10;;;;;;;;;;689361;28;1236;-71
2023/12/13 01:16:33;;;;;;;4.43;1.83;;;;;;;;;;689039;28;3535;-71
2023/12/13 01:16:53;;;;;;;5.72;2.00;;;;;;;;;;686241;28;1850;-71
2023/12/13 01:17:13;;;;;;;5.07;2.00;;;;;;;;;;687315;28;1288;-71
2023/12/13 01:17:33;;;;;;;4.47;1.63;;;;;;;;;;689636;28;967;-71
2023/12/13 01:17:53;;;;;;;5.80;1.70;;;;;;;;;;686313;28;1796;-71
2023/12/13 01:18:14;;;;;;;3.87;1.50;;;;;;;;;;686984;28;1359;-71
2023/12/13 01:18:35;;;;;;;3.05;1.40;;;;;;;;;;686871;28;1217;-70
2023/12/13 01:18:55;;;;;;;3.75;1.67;;;;;;;;;;683363;28;4307;-71
2023/12/13 01:19:15;;;;;;;3.40;1.50;;;;;;;;;;688855;28;1346;-71
2023/12/13 01:19:35;;;;;;;3.67;1.40;;;;;;;;;;687155;28;1328;-71
2023/12/13 01:19:56;;;;;;;4.97;1.57;;;;;;;;;;688722;28;1662;-72
2023/12/13 01:20:16;;;;;;;4.97;1.80;;;;;;;;;;689187;28;1220;-71
2023/12/13 01:20:36;;;;;;;3.87;1.40;;;;;;;;;;689524;28;1341;-72
2023/12/13 01:20:57;;;;;;;4.17;1.70;;;;;;;;;;688932;28;1377;-71
2023/12/13 01:21:17;;;;;;;3.97;1.58;;;;;;;;;;689648;28;1233;-71
2023/12/13 01:21:37;;;;;;;3.70;1.40;;;;;;;;;;686569;28;1439;-70
2023/12/13 01:21:57;;;;;;;4.13;1.40;;;;;;;;;;685546;28;4402;-70
2023/12/13 01:22:20;;;;;;;4.20;1.35;;;;;;;;;;687342;28;932;-71
2023/12/13 01:22:41;;;;;;;4.03;1.40;;;;;;;;;;684770;28;1303;-70
2023/12/13 01:23:01;;;;;;;3.90;1.50;;;;;;;;;;682885;28;1356;-71
2023/12/13 01:23:21;;;;;;;4.23;1.40;;;;;;;;;;684648;28;1281;-72
2023/12/13 01:23:41;;;;;;;4.95;1.40;;;;;;;;;;685197;28;1439;-71
2023/12/13 01:24:02;;;;;;;5.17;1.53;;;;;;;;;;683190;28;1178;-71
2023/12/13 01:24:22;;;;;;;3.97;1.50;;;;;;;;;;684466;28;1352;-71
2023/12/13 01:24:43;;;;;;;4.70;1.60;;;;;;;;;;688017;28;4455;-70
2023/12/13 01:25:03;;;;;;;3.70;1.43;;;;;;;;;;687162;28;1464;-70
2023/12/13 01:25:23;;;;;;;3.38;1.30;;;;;;;;;;687954;28;1296;-71
2023/12/13 01:25:43;;;;;;;4.40;1.50;;;;;;;;;;688752;28;1481;-71
2023/12/13 01:26:04;;;;;;;3.90;1.40;;;;;;;;;;688697;28;1406;-70
2023/12/13 01:26:24;;;;;;;5.53;1.45;;;;;;;;;;689191;28;1339;-71
2023/12/13 01:26:44;;;;;;;5.73;1.60;;;;;;;;;;688884;28;1395;-70
2023/12/13 01:27:05;;;;;;;3.73;1.47;;;;;;;;;;688618;28;1339;-70
2023/12/13 01:27:25;;;;;;;4.78;1.67;;;;;;;;;;690055;28;1294;-71
2023/12/13 01:27:45;;;;;;;5.47;1.80;;;;;;;;;;688406;28;4307;-71
2023/12/13 01:28:06;;;;;;;6.32;2.30;;;;;;;;;;689413;28;1490;-70
2023/12/13 01:28:26;;;;;;;5.90;1.83;;;;;;;;;;688911;28;1426;-70
2023/12/13 01:28:47;;;;;;;5.77;1.80;;;;;;;;;;688726;28;1465;-70
2023/12/13 01:29:07;;;;;;;4.70;1.60;;;;;;;;;;688761;28;1551;-70
2023/12/13 01:29:27;;;;;;;3.83;1.40;;;;;;;;;;689451;28;1405;-71
2023/12/13 01:29:47;;;;;;;4.80;1.58;;;;;;;;;;689919;28;1239;-69
2023/12/13 01:30:08;;;;;;;4.57;1.77;;;;;;;;;;688811;28;1509;-71
2023/12/13 01:30:28;;;;;;;5.00;1.67;;;;;;;;;;689406;28;1533;-70
2023/12/13 01:30:49;;;;;;;6.43;1.80;;;;;;;;;;689066;28;4487;-70
2023/12/13 01:31:09;;;;;;;6.80;1.90;;;;;;;;;;688861;28;1711;-69
2023/12/13 01:31:29;;;;;;;4.90;1.60;;;;;;;;;;687143;28;1488;-70
2023/12/13 01:31:49;;;;;;;3.67;1.50;;;;;;;;;;690306;28;1402;-71
2023/12/13 01:32:09;;;;;;;3.90;1.50;;;;;;;;;;689400;28;1207;-70
2023/12/13 01:32:30;;;;;;;5.50;1.70;;;;;;;;;;689227;28;1373;-70
2023/12/13 01:32:50;;;;;;;3.97;1.60;;;;;;;;;;688807;28;1583;-70
2023/12/13 01:33:10;;;;;;;3.30;1.40;;;;;;;;;;688598;28;1347;-71
2023/12/13 01:33:31;;;;;;;4.07;1.60;;;;;;;;;;689644;28;1409;-71
2023/12/13 01:33:51;;;;;;;3.07;1.50;;;;;;;;;;685907;28;4293;-71
2023/12/13 01:34:11;;;;;;;3.47;1.40;;;;;;;;;;687421;28;1426;-71
2023/12/13 01:34:31;;;;;;;3.90;1.30;;;;;;;;;;686740;28;1571;-71
2023/12/13 01:34:52;;;;;;;3.45;1.30;;;;;;;;;;686286;28;1979;-70
2023/12/13 01:35:12;;;;;;;3.47;1.40;;;;;;;;;;686737;28;1450;-71
2023/12/13 01:35:32;;;;;;;4.17;1.70;;;;;;;;;;686475;28;1241;-71
2023/12/13 01:35:52;;;;;;;4.93;1.75;;;;;;;;;;683624;28;1364;-72
2023/12/13 01:36:13;;;;;;;5.23;1.60;;;;;;;;;;684572;28;1422;-71
2023/12/13 01:36:39;;;;;;;4.10;1.50;;;;;;;;;;681532;28;1352;-71
2023/12/13 01:37:01;;;;;;;4.95;1.85;;;;;;;;;;683123;28;4544;-71
2023/12/13 01:37:21;;;;;;;4.38;1.60;;;;;;;;;;686457;28;1301;-71
2023/12/13 01:37:41;;;;;;;3.93;1.63;;;;;;;;;;686688;28;1351;-71
2023/12/13 01:38:02;;;;;;;3.97;1.80;;;;;;;;;;688766;28;1386;-71
2023/12/13 01:38:22;;;;;;;4.60;1.50;;;;;;;;;;688691;28;1368;-71
2023/12/13 01:38:42;;;;;;;5.10;1.60;;;;;;;;;;688200;28;1474;-71
2023/12/13 01:39:03;;;;;;;4.50;1.67;;;;;;;;;;690406;28;5813;-71
2023/12/13 01:39:23;;;;;;;4.07;1.65;;;;;;;;;;687785;28;1347;-71
2023/12/13 01:39:43;;;;;;;5.70;1.70;;;;;;;;;;684915;28;4619;-71
2023/12/13 01:40:05;;;;;;;6.20;1.57;;;;;;;;;;685583;28;1450;-71
2023/12/13 01:40:25;;;;;;;4.45;1.98;;;;;;;;;;686884;28;1454;-71
2023/12/13 01:40:52;;;;;;;4.30;2.00;;;;;;;;;;686195;28;1323;-71
2023/12/13 01:41:13;;;;;;;7.50;2.28;;;;;;;;;;686401;28;1387;-71
2023/12/13 01:41:34;;;;;;;8.93;2.80;;;;;;;;;;690044;28;1342;-71
2023/12/13 01:41:54;;;;;;;7.63;2.90;;;;;;;;;;688663;28;1433;-71
2023/12/13 01:42:14;;;;;;;6.23;2.30;;;;;;;;;;689397;28;1358;-71
2023/12/13 01:42:38;;;;;;;6.68;2.20;;;;;;;;;;689463;28;1311;-71
2023/12/13 01:42:58;;;;;;;6.93;2.08;;;;;;;;;;684606;28;4430;-71
2023/12/13 01:43:23;;;;;;;5.70;2.07;;;;;;;;;;687022;28;1324;-71
2023/12/13 01:43:43;;;;;;;5.32;1.95;;;;;;;;;;684222;28;1482;-70
2023/12/13 01:44:04;;;;;;;5.57;1.83;;;;;;;;;;683949;28;1390;-71
2023/12/13 01:44:24;;;;;;;5.80;1.90;;;;;;;;;;685196;28;1415;-72
2023/12/13 01:44:44;;;;;;;5.10;1.80;;;;;;;;;;683970;28;1451;-70
2023/12/13 01:45:05;;;;;;;5.83;1.80;;;;;;;;;;685090;28;1324;-71
2023/12/13 01:45:25;;;;;;;5.67;1.77;;;;;;;;;;686036;28;1344;-71
2023/12/13 01:45:45;;;;;;;4.27;1.73;;;;;;;;;;685615;28;4325;-71
2023/12/13 01:46:06;;;;;;;4.50;1.83;;;;;;;;;;684854;28;1489;-71
2023/12/13 01:46:26;;;;;;;5.57;1.98;;;;;;;;;;687137;28;1501;-71
2023/12/13 01:46:47;;;;;;;4.83;1.80;;;;;;;;;;685921;28;1505;-72
2023/12/13 01:47:08;;;;;;;4.40;1.80;;;;;;;;;;685095;28;1482;-71
2023/12/13 01:47:29;;;;;;;5.03;1.80;;;;;;;;;;686610;28;1457;-70
2023/12/13 01:47:49;;;;;;;5.37;1.80;;;;;;;;;;689297;28;1583;-71
2023/12/13 01:48:09;;;;;;;7.10;2.50;;;;;;;;;;688506;28;1307;-71
2023/12/13 01:48:29;;;;;;;7.17;2.53;;;;;;;;;;685694;28;1367;-71
2023/12/13 01:48:50;;;;;;;5.03;1.70;;;;;;;;;;685278;28;4316;-71
2023/12/13 01:49:11;;;;;;;4.03;1.63;;;;;;;;;;686041;28;1220;-70
2023/12/13 01:49:32;;;;;;;5.55;1.80;;;;;;;;;;686009;28;1422;-70
2023/12/13 01:49:52;;;;;;;4.97;1.77;;;;;;;;;;683537;28;1405;-71
2023/12/13 01:50:12;;;;;;;4.22;1.80;;;;;;;;;;685176;28;1426;-72
2023/12/13 01:50:33;;;;;;;4.70;1.63;;;;;;;;;;687122;28;1398;-71
2023/12/13 01:50:54;;;;;;;4.70;1.63;;;;;;;;;;685955;28;1410;-71
2023/12/13 01:51:14;;;;;;;4.87;1.80;;;;;;;;;;687313;28;1445;-72
2023/12/13 01:51:35;;;;;;;4.07;1.70;;;;;;;;;;689305;28;1386;-71
2023/12/13 01:51:55;;;;;;;5.05;1.73;;;;;;;;;;688340;28;4270;-71
2023/12/13 01:52:16;;;;;;;4.47;1.70;;;;;;;;;;689442;28;1315;-71
2023/12/13 01:52:36;;;;;;;4.57;1.80;;;;;;;;;;686755;28;1502;-71
2023/12/13 01:52:57;;;;;;;4.30;1.70;;;;;;;;;;686350;28;928;-70
2023/12/13 01:53:17;;;;;;;6.88;1.90;;;;;;;;;;684219;28;1539;-70
2023/12/13 01:53:38;;;;;;;5.50;1.77;;;;;;;;;;682739;28;1328;-71
2023/12/13 01:53:59;;;;;;;4.10;1.70;;;;;;;;;;685122;28;1326;-71
2023/12/13 01:54:19;;;;;;;4.70;1.60;;;;;;;;;;684655;28;1308;-72
2023/12/13 01:54:41;;;;;;;5.32;1.77;;;;;;;;;;684036;28;1454;-71
2023/12/13 01:55:01;;;;;;;4.97;1.80;;;;;;;;;;681495;28;4449;-71
2023/12/13 01:55:22;;;;;;;4.13;1.67;;;;;;;;;;686209;28;1324;-70
2023/12/13 01:55:42;;;;;;;5.25;1.75;;;;;;;;;;683516;28;1329;-70
2023/12/13 01:56:03;;;;;;;6.23;1.70;;;;;;;;;;680023;28;1356;-71
2023/12/13 01:56:23;;;;;;;4.95;1.63;;;;;;;;;;682152;28;1324;-71
2023/12/13 01:56:44;;;;;;;4.90;1.50;;;;;;;;;;686983;28;1252;-71
2023/12/13 01:57:05;;;;;;;5.82;1.73;;;;;;;;;;685968;28;1382;-71
2023/12/13 01:57:25;;;;;;;4.40;1.40;;;;;;;;;;684829;28;1336;-71
2023/12/13 01:57:46;;;;;;;4.60;1.57;;;;;;;;;;683362;28;4470;-72
2023/12/13 01:58:07;;;;;;;5.90;1.58;;;;;;;;;;682997;28;1292;-71
2023/12/13 01:58:28;;;;;;;4.65;1.60;;;;;;;;;;682709;28;1332;-71
2023/12/13 01:58:48;;;;;;;4.88;1.65;;;;;;;;;;682952;28;1494;-71
2023/12/13 01:59:09;;;;;;;6.07;1.60;;;;;;;;;;681617;28;1447;-71
2023/12/13 01:59:32;;;;;;;4.82;1.30;;;;;;;;;;679665;28;1431;-70
2023/12/13 01:59:53;;;;;;;4.50;1.52;;;;;;;;;;683064;28;1375;-70
2023/12/13 02:00:13;;;;;;;4.65;1.50;;;;;;;;;;685327;28;1339;-72
2023/12/13 02:00:34;;;;;;;4.90;1.60;;;;;;;;;;687367;28;1228;-70
2023/12/13 02:00:55;;;;;;;4.87;1.63;;;;;;;;;;688254;28;4319;-70
2023/12/13 02:01:15;;;;;;;5.43;1.60;;;;;;;;;;686740;28;1407;-71
2023/12/13 02:01:37;;;;;;;6.18;1.50;;;;;;;;;;688199;28;1386;-70
2023/12/13 02:01:57;;;;;;;4.87;1.40;;;;;;;;;;684069;28;1351;-70
2023/12/13 02:02:17;;;;;;;4.03;1.65;;;;;;;;;;686763;28;1414;-71
2023/12/13 02:02:38;;;;;;;2.93;1.50;;;;;;;;;;686961;28;1405;-71
2023/12/13 02:02:58;;;;;;;5.47;1.60;;;;;;;;;;684153;28;1333;-70
2023/12/13 02:03:20;;;;;;;5.43;1.40;;;;;;;;;;682844;28;1372;-71
2023/12/13 02:03:41;;;;;;;4.30;1.50;;;;;;;;;;681281;29;1513;-71
2023/12/13 02:04:01;;;;;;;4.30;1.63;;;;;;;;;;680484;28;4209;-70
2023/12/13 02:04:24;;;;;;;4.25;1.60;;;;;;;;;;684310;28;1300;-71
2023/12/13 02:04:44;;;;;;;4.47;1.60;;;;;;;;;;686104;28;1260;-70
2023/12/13 02:05:06;;;;;;;4.87;1.80;;;;;;;;;;686731;28;1296;-70
2023/12/13 02:05:27;;;;;;;4.28;1.50;;;;;;;;;;690107;28;1255;-70
2023/12/13 02:05:47;;;;;;;4.50;1.50;;;;;;;;;;692433;28;1323;-70
2023/12/13 02:06:08;;;;;;;3.15;1.50;;;;;;;;;;688338;28;1383;-70
2023/12/13 02:06:29;;;;;;;3.50;1.50;;;;;;;;;;689725;28;1359;-71
2023/12/13 02:06:50;;;;;;;2.78;1.40;;;;;;;;;;688254;28;4577;-71
2023/12/13 02:07:10;;;;;;;4.32;1.45;;;;;;;;;;686109;28;1291;-70